Time;durP1;ratioP1;P1;durP2;ratioP2;P2;SDS_P1;SDS_P2;PMS_P1;PMS_P2;Temp;Humidity;BMP_temperature;BMP_pressure;BME280_temperature;BME280_humidity;BME280_pressure;Samples;Min_cycle;Max_cycle;Signal;HPM_P1;HPM_P2
2021/05/25 00:01:47;;;;;;;0.50;0.30;;;;;;;;;;4988797;28;20038;-63
2021/05/25 00:04:12;;;;;;;0.50;0.40;;;;;;;;;;5006992;28;20030;-63
2021/05/25 00:06:37;;;;;;;0.32;0.25;;;;;;;;;;5006802;28;20221;-63
2021/05/25 00:09:03;;;;;;;0.20;0.20;;;;;;;;;;5005013;28;20034;-62
2021/05/25 00:11:29;;;;;;;0.50;0.30;;;;;;;;;;4990662;28;20081;-63
2021/05/25 00:13:54;;;;;;;0.63;0.40;;;;;;;;;;5004596;28;20035;-63
2021/05/25 00:16:20;;;;;;;0.55;0.35;;;;;;;;;;5007090;28;20551;-64
2021/05/25 00:18:45;;;;;;;0.32;0.30;;;;;;;;;;4988252;28;20042;-63
2021/05/25 00:21:11;;;;;;;1.33;0.30;;;;;;;;;;4990073;28;20030;-63
2021/05/25 00:23:36;;;;;;;0.38;0.30;;;;;;;;;;5005727;28;20488;-63
2021/05/25 00:26:02;;;;;;;0.20;0.20;;;;;;;;;;5007938;28;20088;-64
2021/05/25 00:28:27;;;;;;;0.20;0.20;;;;;;;;;;4990198;28;20042;-63
2021/05/25 00:30:53;;;;;;;0.88;0.40;;;;;;;;;;5006915;28;23722;-63
2021/05/25 00:33:18;;;;;;;1.17;0.30;;;;;;;;;;5006307;28;20047;-63
2021/05/25 00:35:44;;;;;;;0.57;0.32;;;;;;;;;;5008618;28;20045;-64
2021/05/25 00:38:10;;;;;;;0.22;0.22;;;;;;;;;;5007094;28;20084;-63
2021/05/25 00:40:36;;;;;;;0.80;0.20;;;;;;;;;;5007042;28;20034;-64
2021/05/25 00:43:01;;;;;;;0.30;0.30;;;;;;;;;;5004159;28;22903;-63
2021/05/25 00:45:26;;;;;;;1.05;0.30;;;;;;;;;;5006067;28;20565;-63
2021/05/25 00:47:52;;;;;;;0.30;0.20;;;;;;;;;;4990498;28;20035;-63
2021/05/25 00:50:24;;;;;;;0.90;0.30;;;;;;;;;;5006887;28;20042;-63
2021/05/25 00:52:55;;;;;;;0.20;0.20;;;;;;;;;;5004998;28;20124;-63
2021/05/25 00:55:32;;;;;;;0.20;0.20;;;;;;;;;;5004670;28;20038;-63
2021/05/25 00:57:58;;;;;;;0.30;0.30;;;;;;;;;;5006247;28;20039;-63
2021/05/25 01:00:32;;;;;;;0.40;0.40;;;;;;;;;;5005457;28;20461;-63
2021/05/25 01:02:57;;;;;;;0.57;0.40;;;;;;;;;;5007012;28;20077;-63
2021/05/25 01:05:23;;;;;;;0.40;0.30;;;;;;;;;;4991575;28;20196;-63
2021/05/25 01:07:49;;;;;;;1.08;0.30;;;;;;;;;;5005305;28;20049;-63
2021/05/25 01:10:16;;;;;;;0.35;0.30;;;;;;;;;;5003468;28;20034;-63
2021/05/25 01:13:05;;;;;;;0.68;0.38;;;;;;;;;;5006537;28;20038;-63
2021/05/25 01:15:28;;;;;;;0.30;0.30;;;;;;;;;;4992644;28;20057;-63
2021/05/25 01:17:55;;;;;;;0.75;0.30;;;;;;;;;;5005279;28;20049;-63
2021/05/25 01:20:21;;;;;;;0.40;0.30;;;;;;;;;;5006585;28;20041;-63
2021/05/25 01:22:47;;;;;;;0.77;0.38;;;;;;;;;;5008010;28;20547;-64
2021/05/25 01:25:13;;;;;;;0.75;0.30;;;;;;;;;;5006059;28;20043;-64
2021/05/25 01:27:39;;;;;;;0.50;0.40;;;;;;;;;;5007970;28;20195;-63
2021/05/25 01:30:06;;;;;;;0.20;0.20;;;;;;;;;;5007116;28;20061;-64
2021/05/25 01:32:31;;;;;;;0.68;0.40;;;;;;;;;;4989870;28;20105;-63
2021/05/25 01:34:57;;;;;;;1.45;0.47;;;;;;;;;;4988772;28;20026;-63
2021/05/25 01:37:23;;;;;;;0.30;0.30;;;;;;;;;;5007019;28;20035;-62
2021/05/25 01:39:52;;;;;;;0.43;0.43;;;;;;;;;;4990649;28;20121;-64
2021/05/25 01:42:18;;;;;;;0.80;0.40;;;;;;;;;;5006530;28;20384;-62
2021/05/25 01:44:44;;;;;;;0.45;0.25;;;;;;;;;;5004425;28;20040;-63
2021/05/25 01:47:09;;;;;;;0.30;0.30;;;;;;;;;;5007222;28;20127;-62
2021/05/25 01:49:35;;;;;;;0.98;0.40;;;;;;;;;;4986475;28;20848;-63
2021/05/25 01:52:00;;;;;;;0.70;0.40;;;;;;;;;;5004749;28;20041;-63
2021/05/25 01:54:26;;;;;;;0.43;0.30;;;;;;;;;;4987398;28;20040;-63
2021/05/25 01:56:51;;;;;;;0.40;0.30;;;;;;;;;;5005802;28;20052;-63
2021/05/25 01:59:17;;;;;;;0.30;0.20;;;;;;;;;;4986346;28;20031;-63
2021/05/25 02:01:42;;;;;;;0.30;0.22;;;;;;;;;;4986404;28;20483;-63
2021/05/25 02:04:08;;;;;;;0.40;0.30;;;;;;;;;;5004529;28;20415;-63
2021/05/25 02:06:33;;;;;;;0.65;0.40;;;;;;;;;;5006733;28;20034;-63
2021/05/25 02:09:02;;;;;;;0.43;0.30;;;;;;;;;;5002374;28;20097;-63
2021/05/25 02:11:27;;;;;;;0.35;0.30;;;;;;;;;;5006488;28;20105;-62
2021/05/25 02:13:53;;;;;;;0.85;0.30;;;;;;;;;;5006783;28;20046;-63
2021/05/25 02:16:18;;;;;;;0.30;0.30;;;;;;;;;;5005088;28;20314;-63
2021/05/25 02:18:46;;;;;;;0.30;0.30;;;;;;;;;;4976222;28;20045;-63
2021/05/25 02:21:13;;;;;;;1.02;0.30;;;;;;;;;;5006279;28;20070;-62
2021/05/25 02:23:39;;;;;;;0.28;0.22;;;;;;;;;;5003112;28;20042;-63
2021/05/25 02:26:05;;;;;;;0.77;0.30;;;;;;;;;;5005612;28;20045;-63
2021/05/25 02:28:30;;;;;;;0.30;0.30;;;;;;;;;;4986615;28;20034;-63
2021/05/25 02:30:56;;;;;;;0.30;0.30;;;;;;;;;;5002365;28;20089;-63
2021/05/25 02:33:22;;;;;;;0.85;0.40;;;;;;;;;;5005070;28;20053;-63
2021/05/25 02:35:48;;;;;;;0.43;0.30;;;;;;;;;;4989749;28;20049;-63
2021/05/25 02:38:14;;;;;;;0.28;0.28;;;;;;;;;;5003899;28;20034;-63
2021/05/25 02:40:44;;;;;;;0.30;0.30;;;;;;;;;;5001667;28;20034;-63
2021/05/25 02:43:09;;;;;;;1.33;0.40;;;;;;;;;;5003872;28;20038;-63
2021/05/25 02:45:35;;;;;;;0.77;0.25;;;;;;;;;;5006170;28;20035;-63
2021/05/25 02:48:01;;;;;;;1.75;0.38;;;;;;;;;;5008040;28;20941;-63
2021/05/25 02:50:27;;;;;;;0.50;0.30;;;;;;;;;;4992060;28;20034;-64
2021/05/25 02:52:53;;;;;;;0.55;0.32;;;;;;;;;;4992937;28;20038;-63
2021/05/25 02:55:23;;;;;;;0.30;0.30;;;;;;;;;;5008666;28;20053;-63
2021/05/25 02:57:49;;;;;;;0.45;0.30;;;;;;;;;;5006162;28;20077;-63
2021/05/25 03:00:16;;;;;;;0.30;0.30;;;;;;;;;;5010741;28;20545;-63
2021/05/25 03:02:41;;;;;;;2.40;0.40;;;;;;;;;;5009388;28;20067;-63
2021/05/25 03:05:07;;;;;;;0.40;0.22;;;;;;;;;;5007822;28;20500;-63
2021/05/25 03:07:33;;;;;;;0.75;0.40;;;;;;;;;;5009556;28;20037;-64
2021/05/25 03:09:58;;;;;;;0.63;0.40;;;;;;;;;;4993053;28;20180;-63
2021/05/25 03:12:24;;;;;;;0.30;0.30;;;;;;;;;;5004350;28;20781;-63
2021/05/25 03:14:49;;;;;;;0.38;0.30;;;;;;;;;;5010488;28;20464;-63
2021/05/25 03:17:15;;;;;;;0.70;0.30;;;;;;;;;;5004890;28;20046;-63
2021/05/25 03:19:40;;;;;;;0.43;0.30;;;;;;;;;;4991341;28;20620;-63
2021/05/25 03:22:06;;;;;;;0.65;0.40;;;;;;;;;;5007249;28;20049;-63
2021/05/25 03:24:31;;;;;;;1.17;0.30;;;;;;;;;;5009167;28;20038;-63
2021/05/25 03:26:57;;;;;;;0.40;0.35;;;;;;;;;;4989838;28;20406;-63
2021/05/25 03:29:22;;;;;;;0.60;0.40;;;;;;;;;;5006946;28;20038;-63
2021/05/25 03:31:48;;;;;;;1.25;0.40;;;;;;;;;;5008448;28;20052;-63
2021/05/25 03:34:13;;;;;;;0.70;0.40;;;;;;;;;;4990069;28;20102;-63
2021/05/25 03:36:39;;;;;;;0.80;0.50;;;;;;;;;;5004379;28;20125;-62
2021/05/25 03:39:04;;;;;;;0.88;0.43;;;;;;;;;;5009587;28;20524;-63
2021/05/25 03:41:31;;;;;;;0.70;0.30;;;;;;;;;;5006486;28;20069;-63
2021/05/25 03:43:56;;;;;;;0.77;0.32;;;;;;;;;;5004579;28;20039;-63
2021/05/25 03:46:21;;;;;;;0.63;0.30;;;;;;;;;;4990328;28;20039;-62
2021/05/25 03:48:47;;;;;;;1.13;0.40;;;;;;;;;;5007149;28;20088;-63
2021/05/25 03:51:12;;;;;;;1.23;0.30;;;;;;;;;;5010154;28;20570;-62
2021/05/25 03:53:38;;;;;;;0.35;0.30;;;;;;;;;;4993574;28;20055;-63
2021/05/25 03:58:51;;;;;;;0.68;0.40;;;;;;;;;;5006299;28;20042;-62
2021/05/25 04:01:24;;;;;;;0.43;0.30;;;;;;;;;;5007327;28;20077;-62
2021/05/25 04:03:51;;;;;;;0.52;0.38;;;;;;;;;;5007039;28;20069;-64
2021/05/25 04:06:16;;;;;;;0.47;0.30;;;;;;;;;;5006629;28;20574;-63
2021/05/25 04:08:42;;;;;;;1.73;0.40;;;;;;;;;;4992125;28;20034;-63
2021/05/25 04:11:07;;;;;;;2.15;0.32;;;;;;;;;;4993926;28;20022;-63
2021/05/25 04:13:33;;;;;;;0.73;0.30;;;;;;;;;;4988039;28;20046;-63
2021/05/25 04:15:58;;;;;;;1.15;0.50;;;;;;;;;;4991417;28;20034;-63
2021/05/25 04:18:24;;;;;;;0.38;0.38;;;;;;;;;;4992513;28;20034;-62
2021/05/25 04:20:49;;;;;;;0.80;0.40;;;;;;;;;;5005798;28;20041;-62
2021/05/25 04:23:15;;;;;;;0.60;0.40;;;;;;;;;;5008042;28;20100;-62
2021/05/25 04:25:41;;;;;;;0.50;0.30;;;;;;;;;;5007347;28;20034;-62
2021/05/25 04:28:06;;;;;;;1.00;0.32;;;;;;;;;;5006568;28;20039;-62
2021/05/25 04:30:32;;;;;;;1.02;0.50;;;;;;;;;;5006159;28;20081;-62
2021/05/25 04:32:57;;;;;;;0.43;0.20;;;;;;;;;;5004145;28;20074;-62
2021/05/25 04:35:23;;;;;;;1.15;0.43;;;;;;;;;;5006818;28;20038;-62
2021/05/25 04:37:50;;;;;;;0.73;0.32;;;;;;;;;;4990203;28;20074;-62
2021/05/25 04:40:16;;;;;;;1.08;0.30;;;;;;;;;;5006864;28;20046;-62
2021/05/25 04:42:42;;;;;;;0.38;0.30;;;;;;;;;;5003821;28;20082;-62
2021/05/25 04:45:08;;;;;;;0.20;0.20;;;;;;;;;;5006249;28;20034;-62
2021/05/25 04:47:33;;;;;;;0.32;0.20;;;;;;;;;;4991467;28;20610;-62
2021/05/25 04:49:59;;;;;;;0.45;0.30;;;;;;;;;;4989318;28;20065;-62
2021/05/25 04:52:24;;;;;;;0.30;0.30;;;;;;;;;;5006023;28;20046;-62
2021/05/25 04:54:50;;;;;;;0.60;0.30;;;;;;;;;;5008152;28;20038;-62
2021/05/25 04:57:15;;;;;;;0.28;0.20;;;;;;;;;;5006526;28;20049;-62
2021/05/25 04:59:41;;;;;;;0.70;0.30;;;;;;;;;;5005790;28;20038;-62
2021/05/25 05:02:06;;;;;;;1.05;0.40;;;;;;;;;;5003165;28;20050;-62
2021/05/25 05:04:32;;;;;;;0.40;0.20;;;;;;;;;;5004286;28;20040;-62
2021/05/25 05:06:57;;;;;;;0.20;0.20;;;;;;;;;;4988022;28;20046;-62
2021/05/25 05:09:23;;;;;;;0.20;0.20;;;;;;;;;;5006602;28;20038;-62
2021/05/25 05:11:48;;;;;;;0.20;0.20;;;;;;;;;;5006714;28;20042;-62
2021/05/25 05:14:14;;;;;;;0.40;0.20;;;;;;;;;;5005002;28;20125;-63
2021/05/25 05:16:39;;;;;;;0.32;0.25;;;;;;;;;;5006424;28;20394;-62
2021/05/25 05:19:04;;;;;;;0.20;0.20;;;;;;;;;;5006569;28;20142;-62
2021/05/25 05:21:30;;;;;;;0.65;0.30;;;;;;;;;;5006419;28;20364;-63
2021/05/25 05:23:56;;;;;;;0.63;0.30;;;;;;;;;;5005771;28;20109;-63
2021/05/25 05:26:21;;;;;;;0.82;0.32;;;;;;;;;;5005509;28;20076;-62
2021/05/25 05:28:47;;;;;;;0.10;0.10;;;;;;;;;;5007521;28;20034;-63
2021/05/25 05:31:12;;;;;;;0.47;0.20;;;;;;;;;;5004574;28;20403;-62
2021/05/25 05:33:38;;;;;;;0.90;0.30;;;;;;;;;;4990995;28;20039;-62
2021/05/25 05:36:04;;;;;;;0.52;0.30;;;;;;;;;;5005235;28;20403;-62
2021/05/25 05:38:29;;;;;;;0.43;0.30;;;;;;;;;;5007231;28;20033;-62
2021/05/25 05:41:03;;;;;;;0.75;0.20;;;;;;;;;;5004442;28;20031;-62
2021/05/25 05:43:28;;;;;;;0.77;0.22;;;;;;;;;;5004377;28;20154;-62
2021/05/25 05:45:56;;;;;;;0.25;0.20;;;;;;;;;;5004224;28;20081;-62
2021/05/25 05:48:21;;;;;;;0.20;0.15;;;;;;;;;;5004945;28;20081;-62
2021/05/25 05:50:47;;;;;;;0.40;0.30;;;;;;;;;;5005188;28;20563;-62
2021/05/25 05:53:12;;;;;;;0.30;0.30;;;;;;;;;;4992433;28;20061;-62
2021/05/25 05:55:38;;;;;;;1.08;0.30;;;;;;;;;;5006011;28;20022;-62
2021/05/25 05:58:05;;;;;;;0.20;0.20;;;;;;;;;;4988731;28;20072;-62
2021/05/25 06:00:31;;;;;;;2.15;1.00;;;;;;;;;;5006687;28;20074;-62
2021/05/25 06:02:56;;;;;;;2.08;1.23;;;;;;;;;;5007026;28;20030;-62
2021/05/25 06:05:22;;;;;;;0.25;0.25;;;;;;;;;;5009579;28;20280;-63
2021/05/25 06:07:47;;;;;;;0.20;0.20;;;;;;;;;;4986348;28;20034;-62
2021/05/25 06:10:13;;;;;;;0.20;0.20;;;;;;;;;;5005046;28;20029;-62
2021/05/25 06:12:38;;;;;;;0.63;0.60;;;;;;;;;;5001866;28;20046;-62
2021/05/25 06:15:04;;;;;;;0.30;0.30;;;;;;;;;;4989008;28;20037;-62
2021/05/25 06:17:30;;;;;;;0.63;0.40;;;;;;;;;;5006172;28;20042;-62
2021/05/25 06:19:55;;;;;;;0.20;0.20;;;;;;;;;;5007968;28;20043;-63
2021/05/25 06:22:22;;;;;;;0.20;0.20;;;;;;;;;;5009700;28;20038;-62
2021/05/25 06:24:49;;;;;;;0.57;0.30;;;;;;;;;;5010287;28;20038;-62
2021/05/25 06:27:16;;;;;;;0.20;0.20;;;;;;;;;;5006957;28;20078;-63
2021/05/25 06:29:41;;;;;;;0.30;0.30;;;;;;;;;;4993481;28;20030;-62
2021/05/25 06:32:07;;;;;;;0.10;0.10;;;;;;;;;;5009026;28;20046;-62
2021/05/25 06:34:32;;;;;;;0.77;0.38;;;;;;;;;;5008446;28;20045;-62
2021/05/25 06:36:58;;;;;;;0.30;0.30;;;;;;;;;;5008472;28;20041;-62
2021/05/25 06:39:23;;;;;;;0.30;0.20;;;;;;;;;;5008549;28;20031;-62
2021/05/25 06:41:49;;;;;;;0.28;0.10;;;;;;;;;;4988133;28;20034;-62
2021/05/25 06:44:14;;;;;;;0.95;0.20;;;;;;;;;;5009104;28;20111;-61
2021/05/25 06:46:40;;;;;;;0.40;0.30;;;;;;;;;;5009203;28;20034;-62
2021/05/25 06:49:06;;;;;;;0.63;0.20;;;;;;;;;;5008674;28;20506;-62
2021/05/25 06:51:31;;;;;;;0.20;0.20;;;;;;;;;;5006294;28;20034;-61
2021/05/25 06:53:57;;;;;;;0.17;0.17;;;;;;;;;;5007607;28;20522;-62
2021/05/25 06:56:22;;;;;;;0.20;0.10;;;;;;;;;;5009304;28;20433;-62
2021/05/25 06:58:48;;;;;;;0.20;0.20;;;;;;;;;;5007603;28;20045;-62
2021/05/25 07:01:13;;;;;;;0.30;0.30;;;;;;;;;;5009770;28;20475;-62
2021/05/25 07:03:39;;;;;;;0.50;0.22;;;;;;;;;;5007371;28;20084;-62
2021/05/25 07:06:04;;;;;;;0.55;0.20;;;;;;;;;;5007396;28;20018;-62
2021/05/25 07:08:30;;;;;;;0.30;0.30;;;;;;;;;;5006023;28;20088;-63
2021/05/25 07:10:56;;;;;;;0.20;0.20;;;;;;;;;;5007380;28;21192;-63
2021/05/25 07:13:21;;;;;;;0.28;0.25;;;;;;;;;;5006212;28;20112;-63
2021/05/25 07:15:46;;;;;;;0.32;0.30;;;;;;;;;;5008700;28;20154;-63
2021/05/25 07:18:16;;;;;;;0.20;0.20;;;;;;;;;;5007537;28;20795;-63
2021/05/25 07:20:42;;;;;;;0.60;0.30;;;;;;;;;;4990397;28;20035;-63
2021/05/25 07:23:08;;;;;;;0.20;0.20;;;;;;;;;;4989473;28;20347;-62
2021/05/25 07:25:34;;;;;;;0.30;0.20;;;;;;;;;;4978342;28;20181;-62
2021/05/25 07:27:59;;;;;;;0.30;0.20;;;;;;;;;;5007202;28;20031;-62
2021/05/25 07:30:25;;;;;;;0.20;0.20;;;;;;;;;;5007375;28;20045;-62
2021/05/25 07:32:50;;;;;;;0.20;0.20;;;;;;;;;;5006144;28;20064;-62
2021/05/25 07:35:16;;;;;;;0.17;0.17;;;;;;;;;;5007609;28;20509;-62
2021/05/25 07:37:41;;;;;;;0.65;0.22;;;;;;;;;;5007026;28;20049;-62
2021/05/25 07:40:07;;;;;;;0.20;0.20;;;;;;;;;;4991242;28;20038;-62
2021/05/25 07:42:33;;;;;;;0.22;0.20;;;;;;;;;;5005789;28;20502;-62
2021/05/25 07:44:59;;;;;;;0.20;0.20;;;;;;;;;;5006242;28;20053;-61
2021/05/25 07:47:27;;;;;;;0.20;0.20;;;;;;;;;;5006889;28;20069;-61
2021/05/25 07:49:52;;;;;;;0.20;0.20;;;;;;;;;;5008675;28;20067;-62
2021/05/25 07:52:18;;;;;;;0.40;0.30;;;;;;;;;;5005318;28;20487;-61
2021/05/25 07:54:43;;;;;;;0.30;0.20;;;;;;;;;;5008093;28;20039;-61
2021/05/25 07:57:09;;;;;;;0.35;0.30;;;;;;;;;;5005420;28;20038;-61
2021/05/25 07:59:36;;;;;;;1.00;0.30;;;;;;;;;;5007619;28;20488;-61
2021/05/25 08:02:01;;;;;;;0.20;0.20;;;;;;;;;;5006033;28;20022;-61
2021/05/25 08:04:27;;;;;;;0.17;0.10;;;;;;;;;;5008375;28;20380;-61
2021/05/25 08:06:52;;;;;;;0.47;0.20;;;;;;;;;;5007721;28;20035;-61
2021/05/25 08:09:18;;;;;;;0.20;0.20;;;;;;;;;;4986686;28;20532;-62
2021/05/25 08:11:43;;;;;;;0.52;0.40;;;;;;;;;;5007044;28;20080;-61
2021/05/25 08:14:09;;;;;;;0.20;0.20;;;;;;;;;;5006814;28;20039;-62
2021/05/25 08:16:37;;;;;;;0.17;0.17;;;;;;;;;;4989428;28;20049;-62
2021/05/25 08:21:35;;;;;;;0.20;0.15;;;;;;;;;;5002417;28;20042;-60
2021/05/25 08:24:01;;;;;;;0.20;0.20;;;;;;;;;;5003845;28;20042;-61
2021/05/25 08:26:27;;;;;;;0.10;0.10;;;;;;;;;;5002707;28;20043;-60
2021/05/25 08:28:53;;;;;;;0.20;0.13;;;;;;;;;;5010525;28;20377;-60
2021/05/25 08:31:19;;;;;;;0.85;0.20;;;;;;;;;;5004169;28;20043;-61
2021/05/25 08:33:45;;;;;;;1.00;0.70;;;;;;;;;;5005429;28;20042;-59
2021/05/25 08:36:10;;;;;;;1.02;0.80;;;;;;;;;;5006589;28;20091;-61
2021/05/25 08:38:36;;;;;;;0.38;0.30;;;;;;;;;;5008236;28;20041;-64
2021/05/25 08:41:03;;;;;;;0.13;0.13;;;;;;;;;;5007525;28;20038;-62
2021/05/25 08:43:28;;;;;;;0.10;0.10;;;;;;;;;;5007036;28;20039;-62
2021/05/25 08:45:54;;;;;;;0.45;0.20;;;;;;;;;;5006795;28;20030;-62
2021/05/25 08:48:19;;;;;;;0.10;0.10;;;;;;;;;;4986435;28;20462;-62
2021/05/25 08:50:45;;;;;;;1.55;0.30;;;;;;;;;;5004833;28;20035;-65
2021/05/25 08:53:11;;;;;;;0.20;0.20;;;;;;;;;;5005058;28;20143;-64
2021/05/25 08:55:37;;;;;;;0.28;0.20;;;;;;;;;;5003350;28;20117;-64
2021/05/25 08:58:04;;;;;;;0.20;0.20;;;;;;;;;;4988851;28;20034;-62
2021/05/25 09:00:29;;;;;;;0.25;0.10;;;;;;;;;;5004142;28;20039;-66
2021/05/25 09:02:56;;;;;;;0.25;0.25;;;;;;;;;;5007755;28;20463;-66
2021/05/25 09:05:22;;;;;;;0.20;0.20;;;;;;;;;;4989933;28;20046;-64
2021/05/25 09:07:51;;;;;;;0.35;0.20;;;;;;;;;;5003135;28;20077;-60
2021/05/25 09:10:21;;;;;;;0.45;0.20;;;;;;;;;;5002855;28;20042;-62
2021/05/25 09:12:54;;;;;;;0.20;0.20;;;;;;;;;;5005525;28;20042;-61
2021/05/25 09:15:37;;;;;;;0.40;0.25;;;;;;;;;;4992698;28;20046;-62
2021/05/25 09:18:03;;;;;;;0.20;0.20;;;;;;;;;;5005844;28;20041;-61
2021/05/25 09:20:50;;;;;;;1.13;0.32;;;;;;;;;;5006176;28;20506;-60
2021/05/25 09:23:17;;;;;;;0.15;0.15;;;;;;;;;;5004488;28;20043;-61
2021/05/25 09:26:04;;;;;;;0.20;0.20;;;;;;;;;;5004280;28;20035;-60
2021/05/25 09:28:30;;;;;;;0.20;0.20;;;;;;;;;;4987184;28;20038;-60
2021/05/25 09:30:56;;;;;;;0.38;0.35;;;;;;;;;;5006998;28;20069;-60
2021/05/25 09:33:21;;;;;;;0.17;0.17;;;;;;;;;;5004585;28;20049;-61
2021/05/25 09:35:48;;;;;;;0.10;0.10;;;;;;;;;;5005504;28;20038;-60
2021/05/25 09:38:17;;;;;;;0.75;0.30;;;;;;;;;;5005193;28;20044;-61
2021/05/25 09:40:45;;;;;;;0.50;0.20;;;;;;;;;;4986758;28;20127;-61
2021/05/25 09:43:21;;;;;;;0.55;0.25;;;;;;;;;;5006583;28;20074;-60
2021/05/25 09:46:00;;;;;;;0.32;0.17;;;;;;;;;;4988385;28;20499;-60
2021/05/25 09:48:31;;;;;;;0.10;0.10;;;;;;;;;;4990520;28;20076;-60
2021/05/25 09:50:58;;;;;;;0.57;0.20;;;;;;;;;;5005678;28;20093;-61
2021/05/25 09:53:24;;;;;;;0.20;0.20;;;;;;;;;;4990744;28;20046;-60
2021/05/25 09:55:59;;;;;;;0.30;0.10;;;;;;;;;;5012284;28;20053;-61
2021/05/25 09:58:33;;;;;;;0.20;0.20;;;;;;;;;;5009325;28;20502;-61
2021/05/25 10:00:59;;;;;;;0.20;0.20;;;;;;;;;;5012598;28;20034;-61
2021/05/25 10:03:29;;;;;;;0.10;0.10;;;;;;;;;;5011602;28;20054;-61
2021/05/25 10:05:55;;;;;;;0.50;0.30;;;;;;;;;;5012911;28;20057;-60
2021/05/25 10:08:23;;;;;;;0.85;0.60;;;;;;;;;;4995411;28;20121;-61
2021/05/25 10:10:54;;;;;;;0.35;0.17;;;;;;;;;;4997632;28;20045;-60
2021/05/25 10:13:20;;;;;;;0.10;0.10;;;;;;;;;;4996013;28;20065;-60
2021/05/25 10:15:47;;;;;;;0.10;0.10;;;;;;;;;;4996176;28;20034;-61
2021/05/25 10:20:41;;;;;;;0.52;0.28;;;;;;;;;;5010555;28;20046;-60
2021/05/25 10:23:08;;;;;;;0.52;0.20;;;;;;;;;;4998677;28;20089;-61
2021/05/25 10:25:34;;;;;;;0.25;0.20;;;;;;;;;;4993865;28;20034;-61
2021/05/25 10:28:00;;;;;;;0.30;0.30;;;;;;;;;;5010899;28;20046;-62
2021/05/25 10:30:25;;;;;;;0.30;0.30;;;;;;;;;;4993274;28;20034;-61
2021/05/25 10:33:06;;;;;;;0.43;0.30;;;;;;;;;;5012920;28;20046;-61
2021/05/25 10:35:55;;;;;;;0.55;0.32;;;;;;;;;;5011393;28;20044;-61
2021/05/25 10:38:27;;;;;;;0.40;0.40;;;;;;;;;;5010692;28;20042;-61
2021/05/25 10:40:56;;;;;;;0.70;0.60;;;;;;;;;;5011902;28;20051;-61
2021/05/25 10:43:34;;;;;;;0.40;0.40;;;;;;;;;;4998303;28;20906;-61
2021/05/25 10:46:12;;;;;;;0.40;0.40;;;;;;;;;;5011320;28;20491;-61
2021/05/25 10:49:16;;;;;;;0.50;0.50;;;;;;;;;;5008283;28;20089;-61
2021/05/25 10:51:49;;;;;;;0.70;0.50;;;;;;;;;;5013035;28;20030;-61
2021/05/25 10:54:23;;;;;;;0.85;0.60;;;;;;;;;;5009661;28;20120;-61
2021/05/25 10:56:49;;;;;;;0.63;0.60;;;;;;;;;;5008265;28;20042;-61
2021/05/25 10:59:16;;;;;;;0.68;0.50;;;;;;;;;;5007792;28;20050;-61
2021/05/25 11:01:42;;;;;;;0.60;0.52;;;;;;;;;;4979178;28;20033;-61
2021/05/25 11:04:08;;;;;;;1.77;0.75;;;;;;;;;;5013050;28;20042;-60
2021/05/25 11:06:33;;;;;;;0.60;0.60;;;;;;;;;;4987004;28;20612;-60
2021/05/25 11:09:35;;;;;;;0.70;0.70;;;;;;;;;;5007980;28;20108;-61
2021/05/25 11:12:18;;;;;;;0.65;0.50;;;;;;;;;;4967545;28;20055;-60
2021/05/25 11:15:12;;;;;;;1.20;0.70;;;;;;;;;;5004091;28;20042;-61
2021/05/25 11:17:38;;;;;;;1.15;0.80;;;;;;;;;;4978011;28;20045;-60
2021/05/25 11:20:31;;;;;;;1.55;0.90;;;;;;;;;;5005082;28;20039;-61
2021/05/25 11:22:56;;;;;;;1.52;0.93;;;;;;;;;;5010003;28;20047;-60
2021/05/25 11:25:54;;;;;;;1.05;0.80;;;;;;;;;;5005742;28;20124;-61
2021/05/25 11:28:22;;;;;;;0.70;0.70;;;;;;;;;;4984454;28;20057;-60
2021/05/25 11:30:48;;;;;;;1.00;0.73;;;;;;;;;;5008075;28;20038;-60
2021/05/25 11:33:13;;;;;;;1.08;0.70;;;;;;;;;;5008346;28;20519;-60
2021/05/25 11:35:39;;;;;;;0.73;0.60;;;;;;;;;;4990189;28;20039;-60
2021/05/25 11:38:05;;;;;;;1.00;0.68;;;;;;;;;;5007025;28;20034;-60
2021/05/25 11:40:36;;;;;;;1.10;0.70;;;;;;;;;;5004348;28;20046;-60
2021/05/25 11:43:02;;;;;;;0.95;0.80;;;;;;;;;;5004814;28;20045;-60
2021/05/25 11:45:28;;;;;;;0.88;0.70;;;;;;;;;;5006167;28;20050;-60
2021/05/25 11:48:00;;;;;;;0.82;0.60;;;;;;;;;;4991765;28;21085;-61
2021/05/25 11:50:26;;;;;;;1.23;0.60;;;;;;;;;;5008500;28;20057;-60
2021/05/25 11:52:52;;;;;;;0.55;0.50;;;;;;;;;;5006210;28;20551;-60
2021/05/25 11:55:19;;;;;;;1.00;0.68;;;;;;;;;;4991594;28;20037;-60
2021/05/25 11:57:47;;;;;;;1.88;0.60;;;;;;;;;;5005192;28;20038;-59
2021/05/25 12:00:13;;;;;;;1.10;0.60;;;;;;;;;;5006203;28;20066;-60
2021/05/25 12:02:44;;;;;;;0.60;0.60;;;;;;;;;;5005205;28;20536;-61
2021/05/25 12:05:15;;;;;;;0.55;0.50;;;;;;;;;;4991103;28;21047;-61
2021/05/25 12:07:42;;;;;;;1.73;0.68;;;;;;;;;;5004744;28;20038;-60
2021/05/25 12:10:12;;;;;;;0.93;0.60;;;;;;;;;;4988551;28;20026;-60
2021/05/25 12:12:39;;;;;;;2.47;0.63;;;;;;;;;;5004479;28;20042;-60
2021/05/25 12:15:31;;;;;;;1.52;0.40;;;;;;;;;;5006938;28;20034;-59
2021/05/25 12:17:57;;;;;;;;;;;;;;;;;;5003852;28;20045;-60
2021/05/25 12:20:24;;;;;;;0.82;0.32;;;;;;;;;;5006377;28;20342;-61
2021/05/25 12:22:53;;;;;;;0.32;0.28;;;;;;;;;;5006652;28;20034;-59
2021/05/25 12:25:29;;;;;;;0.30;0.28;;;;;;;;;;4989450;28;20142;-60
2021/05/25 12:28:07;;;;;;;0.50;0.50;;;;;;;;;;5008269;28;21153;-60
2021/05/25 12:30:33;;;;;;;0.30;0.30;;;;;;;;;;5007729;28;20199;-61
2021/05/25 12:32:59;;;;;;;0.80;0.25;;;;;;;;;;5003575;28;20154;-60
2021/05/25 12:35:26;;;;;;;0.30;0.30;;;;;;;;;;4971991;28;20415;-61
2021/05/25 12:38:02;;;;;;;0.57;0.50;;;;;;;;;;4989645;28;20058;-62
2021/05/25 12:40:28;;;;;;;0.73;0.38;;;;;;;;;;5006045;28;20498;-60
2021/05/25 12:42:53;;;;;;;0.70;0.45;;;;;;;;;;5006283;28;20030;-60
2021/05/25 12:45:19;;;;;;;0.50;0.35;;;;;;;;;;5005617;28;20491;-64
2021/05/25 12:47:48;;;;;;;0.73;0.50;;;;;;;;;;5006536;28;20411;-61
2021/05/25 12:50:14;;;;;;;0.52;0.40;;;;;;;;;;5006458;28;20022;-61
2021/05/25 12:52:39;;;;;;;0.68;0.40;;;;;;;;;;5005206;28;20069;-61
2021/05/25 12:55:08;;;;;;;0.70;0.60;;;;;;;;;;5004000;28;20053;-61
2021/05/25 12:57:45;;;;;;;0.82;0.60;;;;;;;;;;5005398;28;20026;-61
2021/05/25 13:00:11;;;;;;;1.35;1.00;;;;;;;;;;4991087;28;20034;-61
2021/05/25 13:02:48;;;;;;;0.75;0.52;;;;;;;;;;4988316;28;20033;-61
2021/05/25 13:05:14;;;;;;;0.68;0.43;;;;;;;;;;4989371;28;20578;-61
2021/05/25 13:07:55;;;;;;;0.80;0.60;;;;;;;;;;4988616;28;20038;-61
2021/05/25 13:10:40;;;;;;;0.82;0.50;;;;;;;;;;4989438;28;20085;-61
2021/05/25 13:13:11;;;;;;;1.48;0.57;;;;;;;;;;5003102;28;20046;-61
2021/05/25 13:15:42;;;;;;;1.50;0.98;;;;;;;;;;5005644;28;20034;-60
2021/05/25 13:18:10;;;;;;;1.92;1.35;;;;;;;;;;4973374;28;20049;-60
2021/05/25 13:20:36;;;;;;;1.70;0.77;;;;;;;;;;5005811;28;20033;-61
2021/05/25 13:23:01;;;;;;;1.35;0.70;;;;;;;;;;5006205;28;20054;-61
2021/05/25 13:25:31;;;;;;;2.17;1.15;;;;;;;;;;4987978;28;20038;-62
2021/05/25 13:27:56;;;;;;;2.08;1.48;;;;;;;;;;5000282;28;20034;-61
2021/05/25 13:30:33;;;;;;;2.58;1.45;;;;;;;;;;4987900;28;20399;-61
2021/05/25 13:32:58;;;;;;;1.48;0.80;;;;;;;;;;4987811;28;20043;-62
2021/05/25 13:35:24;;;;;;;0.52;0.50;;;;;;;;;;5003948;28;20038;-61
2021/05/25 13:37:49;;;;;;;0.80;0.50;;;;;;;;;;5007194;28;20041;-61
2021/05/25 13:40:15;;;;;;;1.10;0.90;;;;;;;;;;5005301;28;20042;-61
2021/05/25 13:42:41;;;;;;;1.17;1.00;;;;;;;;;;4988383;28;20538;-61
2021/05/25 13:45:07;;;;;;;1.00;0.60;;;;;;;;;;5009008;28;20279;-61
2021/05/25 13:47:32;;;;;;;1.63;1.00;;;;;;;;;;5006776;28;20042;-60
2021/05/25 13:49:58;;;;;;;1.15;0.40;;;;;;;;;;5005643;28;20038;-60
2021/05/25 13:52:23;;;;;;;0.38;0.30;;;;;;;;;;5006709;28;20038;-60
2021/05/25 13:54:50;;;;;;;0.40;0.30;;;;;;;;;;5005557;28;20516;-60
2021/05/25 13:57:21;;;;;;;0.30;0.30;;;;;;;;;;4989173;28;20277;-59
2021/05/25 14:02:13;;;;;;;0.60;0.30;;;;;;;;;;5006482;28;20038;-59
2021/05/25 14:04:39;;;;;;;0.40;0.38;;;;;;;;;;5003680;28;20030;-59
2021/05/25 14:07:11;;;;;;;0.40;0.40;;;;;;;;;;5005620;28;20035;-59
2021/05/25 14:09:37;;;;;;;1.08;0.75;;;;;;;;;;5005941;28;20129;-60
2021/05/25 14:12:02;;;;;;;0.65;0.60;;;;;;;;;;4990167;28;20066;-60
2021/05/25 14:14:28;;;;;;;0.30;0.30;;;;;;;;;;4985613;28;20039;-59
2021/05/25 14:16:53;;;;;;;0.30;0.30;;;;;;;;;;5002360;28;20170;-60
2021/05/25 14:19:19;;;;;;;5.57;3.72;;;;;;;;;;5004614;28;20475;-61
2021/05/25 14:21:44;;;;;;;1.95;1.50;;;;;;;;;;5002830;28;20046;-60
2021/05/25 14:24:10;;;;;;;3.50;2.25;;;;;;;;;;5002880;28;20530;-60
2021/05/25 14:26:35;;;;;;;4.20;2.60;;;;;;;;;;5003465;28;20098;-61
2021/05/25 14:29:01;;;;;;;3.08;1.77;;;;;;;;;;5002772;28;20529;-61
2021/05/25 14:31:26;;;;;;;1.15;0.60;;;;;;;;;;5005259;28;20069;-61
2021/05/25 14:33:54;;;;;;;0.98;0.40;;;;;;;;;;4987961;28;20046;-61
2021/05/25 14:36:19;;;;;;;0.80;0.40;;;;;;;;;;5003308;28;20124;-61
2021/05/25 14:38:45;;;;;;;0.70;0.47;;;;;;;;;;5004189;28;20913;-61
2021/05/25 14:41:10;;;;;;;1.40;0.50;;;;;;;;;;4992888;28;20030;-61
2021/05/25 14:43:36;;;;;;;1.33;0.40;;;;;;;;;;5006333;28;20030;-60
2021/05/25 14:46:01;;;;;;;0.98;0.60;;;;;;;;;;4990215;28;20023;-61
2021/05/25 14:48:27;;;;;;;0.88;0.50;;;;;;;;;;5007512;28;20030;-61
2021/05/25 14:50:53;;;;;;;0.90;0.60;;;;;;;;;;4988596;28;20128;-60
2021/05/25 14:53:24;;;;;;;1.30;0.80;;;;;;;;;;5007447;28;20058;-61
2021/05/25 14:55:56;;;;;;;1.67;0.80;;;;;;;;;;5005307;28;20436;-61